Terminal Aerodrome Forecast
Issued by NWS Wilmington, OH

Home | Current Version | Previous Version | Text Only | Print | Product List | Glossary On
Versions: 1 2 3 4 5 6 7 8 9 10 11 12 13 14 15 16 17 18 19
000
FTUS41 KILN 160300 AAA
TAFILN
TAF AMD
KILN 160348Z 1604/1624 34005KT 3SM -RA BR OVC005
     FM160600 36008KT 3SM BR VCSH OVC012
     FM160800 36008KT 4SM BR OVC004
     FM161500 01008KT P6SM OVC010
     FM161700 01008KT P6SM BKN022
     FM161900 01008KT P6SM BKN035=

USA.gov is the U.S. government's official web portal to all federal, state and local government web resources and services.